• Join FlightAware (Why Join?)
  • Login
  • US Flag 
05:59PM EDT


 

Airport Tracker/Info


-or-


 

Live Flight TrackerFlight Track Log ✈ AAY855 ✈ 09-Mar-2014 ✈ KSBN - KPIE

Flight Track Log - Related Links

Times and Time Zones

All times are in EDT time to prevent confusion due to time zone crossing. See the AAY855 flight status page for this flight to view local times or setup timezone preferences in your user account.

Time Position Orientation Groundspeed Altitude Reporting Facility
EDT Latitude Longitude Course Direction KTS MPH feet Rate Location/Type
09:24AM 41.6522 -86.3481 131° Southeast 233 268 3,900  Level Chicago Center
09:25AM 41.6064 -86.2667 127° Southeast 273 314 6,600 2,580 Climbing Chicago Center
09:26AM 41.5569 -86.1781 127° Southeast 295 339 9,200 2,280 Climbing Chicago Center
09:27AM 41.4906 -86.0619 127° Southeast 329 379 11,300 1,680 Climbing Chicago Center
09:28AM 41.4167 -85.9525 132° Southeast 399 459 12,700 1,740 Climbing Chicago Center
09:29AM 41.2619 -85.6257 131° Southeast  Level FlightAware Approximate
09:29AM 41.3328 -85.8433 136° Southeast 423 487 14,900  Level Chicago Center
09:30AM 41.2467 -85.7308 135° Southeast 437 503 17,100 1,860 Climbing Chicago Center
09:31AM 41.1531 -85.6219 139° Southeast 448 516 18,800 1,620 Climbing Chicago Center
09:32AM 41.0539 -85.5147 141° Southeast 461 531 20,500 1,620 Climbing Chicago Center
09:33AM 40.9519 -85.4058 141° Southeast 471 542 22,200 1,560 Climbing Chicago Center
09:34AM 40.8247 -85.2708 141° Southeast 489 563 23,800 1,440 Climbing Chicago Center
09:35AM 40.7017 -85.2022 157° South 488 562 25,200 1,440 Climbing Chicago Center
09:36AM 40.5803 -85.1550 164° South 489 563 26,800 1,500 Climbing Chicago Center
09:37AM 40.4761 -85.1081 161° South 492 566 28,000 1,200 Climbing Indianapolis Center
09:38AM 40.3481 -85.0506 161° South 490 564 29,100 1,020 Climbing Indianapolis Center
09:39AM 40.2178 -84.9928 161° South 490 564 30,100 1,140 Climbing Indianapolis Center
09:40AM 40.0619 -84.9228 161° South 490 564 31,500 1,260 Climbing Indianapolis Center
09:41AM 39.9450 -84.8719 162° South 490 564 32,800 720 Climbing Indianapolis Center
09:42AM 39.8244 -84.8183 161° South 474 545 33,000 60 Climbing Indianapolis Center
09:43AM 39.7042 -84.7644 161° South 465 535 33,000  Level Indianapolis Center
09:44AM 39.5569 -84.7011 162° South 465 535 33,000  Level Indianapolis Center
09:45AM 39.4356 -84.6469 161° South 465 535 33,000  Level Indianapolis Center
09:46AM 39.3119 -84.5936 162° South 466 536 33,000  Level Indianapolis Center
09:47AM 39.1892 -84.5403 161° South 466 536 33,000  Level Indianapolis Center
09:48AM 39.0669 -84.4894 162° South 466 536 33,000  Level Indianapolis Center
09:49AM 38.9439 -84.4361 161° South 466 536 33,000  Level Indianapolis Center
09:50AM 38.8025 -84.3731 161° South 456 525 33,000  Level Indianapolis Center
09:51AM 38.6800 -84.3167 160° South 463 533 33,000  Level Indianapolis Center
09:52AM 38.5639 -84.2647 161° South 465 535 33,000  Level Indianapolis Center
09:53AM 38.4383 -84.2467 174° South 455 524 33,000  Level Indianapolis Center
09:55AM 38.2958 -84.2269 174° South 447 514 33,000  Level Indianapolis Center
09:56AM 38.1733 -84.2092 173° South 446 513 33,000  Level Indianapolis Center
09:57AM 38.0539 -84.1886 172° South 436 502 33,000  Level Indianapolis Center
09:58AM 37.9311 -84.1747 175° South 436 502 33,000  Level Indianapolis Center
09:59AM 37.8119 -84.1550 173° South 437 503 33,000  Level Indianapolis Center
10:00AM 37.6922 -84.1372 173° South 435 501 33,000  Level Indianapolis Center
10:01AM 37.5722 -84.1211 174° South 435 501 33,000  Level Indianapolis Center
10:02AM 37.4322 -84.1011 174° South 435 501 33,000  Level Indianapolis Center
10:03AM 37.3119 -84.0839 174° South 435 501 33,000  Level Indianapolis Center
10:04AM 37.1925 -84.0672 174° South 435 501 33,000  Level Indianapolis Center
10:05AM 37.0731 -84.0514 174° South 434 499 33,000  Level Indianapolis Center
10:06AM 36.9544 -84.0344 173° South 433 498 33,000  Level Indianapolis Center
10:07AM 36.8339 -84.0183 174° South 433 498 33,000  Level Indianapolis Center
10:08AM 36.6944 -83.9992 174° South 433 498 33,000  Level Indianapolis Center
10:09AM 36.5742 -83.9839 174° South 433 498 33,000  Level Indianapolis Center
10:10AM 36.4497 -83.9658 173° South 434 499 33,000  Level Indianapolis Center
10:11AM 36.3272 -83.9497 174° South 435 501 33,000  Level Indianapolis Center
10:12AM 36.2056 -83.9456 178° South 436 502 33,000  Level Indianapolis Center
10:13AM 36.0917 -83.9694 190° South 420 483 33,000  Level Indianapolis Center
10:14AM 35.9747 -83.9950 190° South 422 486 33,000  Level Atlanta Center
10:15AM 35.8600 -84.0158 188° South 417 480 33,000  Level Atlanta Center
10:16AM 35.7494 -84.0389 190° South 417 480 33,000  Level Atlanta Center
10:17AM 35.6369 -84.0617 189° South 412 474 33,000  Level Atlanta Center
10:18AM 35.5242 -84.0822 188° South 412 474 33,000  Level Atlanta Center
10:19AM 35.4136 -84.1050 190° South 412 474 33,000  Level Atlanta Center
10:20AM 35.3008 -84.1278 189° South 412 474 33,000  Level Atlanta Center
10:21AM 35.1903 -84.1481 189° South 407 468 33,000  Level Atlanta Center
10:22AM 35.0778 -84.1683 188° South 412 474 33,000  Level Atlanta Center
10:23AM 34.9650 -84.1858 187° South 412 474 33,000  Level Atlanta Center
10:24AM 34.8439 -84.2083 189° South 412 474 33,000  Level Atlanta Center
10:25AM 34.7333 -84.2308 189° South 402 463 33,000  Level Atlanta Center
10:26AM 34.6289 -84.2483 188° South 413 475 33,000  Level Atlanta Center
10:27AM 34.5183 -84.2708 190° South 413 475 33,000  Level Atlanta Center
10:28AM 34.4075 -84.2906 188° South 404 465 33,000  Level Atlanta Center
10:29AM 34.2969 -84.3128 189° South 410 472 33,000  Level Atlanta Center
10:30AM 34.1864 -84.3325 188° South 410 472 33,000  Level Atlanta Center
10:31AM 34.0714 -84.3572 190° South 410 472 33,000  Level Atlanta Center
10:32AM 33.9650 -84.3769 189° South 410 472 33,000  Level Atlanta Center
10:33AM 33.8500 -84.3964 188° South 411 473 33,000  Level Atlanta Center
10:34AM 33.7372 -84.4161 188° South 411 473 33,000  Level Atlanta Center
10:35AM 33.6267 -84.4356 188° South 406 467 33,000  Level Atlanta Center
10:36AM 33.5097 -84.4375 181° South 413 475 33,000  Level Atlanta Center
10:37AM 33.3950 -84.4344 179° South 418 481 33,000  Level Atlanta Center
10:38AM 33.2761 -84.4314 179° South 423 487 33,000  Level Atlanta Center
10:39AM 33.1611 -84.4283 179° South 417 480 33,000  Level Atlanta Center
10:40AM 33.0442 -84.4253 179° South 417 480 33,000  Level Atlanta Center
10:41AM 32.9275 -84.4225 179° South 422 486 33,000  Level Atlanta Center
10:42AM 32.8022 -84.4244 181° South 413 475 33,000  Level Atlanta Center
10:43AM 32.7000 -84.4142 175° South 413 475 33,000  Level Atlanta Center
10:44AM 32.5831 -84.4086 178° South 418 481 33,000  Level Atlanta Center
10:45AM 32.4642 -84.3858 171° South 423 487 33,000  Level Atlanta Center
10:47AM 32.2458 -84.3442 171° South 425 489 33,000  Level Jacksonville Center
10:48AM 32.1272 -84.3228 171° South 430 495 33,000  Level Jacksonville Center
10:49AM 32.0167 -84.3014 171° South 437 503 33,000  Level Jacksonville Center
10:50AM 31.8981 -84.2800 171° South 437 503 33,000  Level Jacksonville Center
10:51AM 31.7792 -84.2564 170° South 437 503 33,000  Level Jacksonville Center
10:52AM 31.6583 -84.2375 172° South 442 509 33,000  Level Jacksonville Center
10:53AM 31.5394 -84.2139 170° South 442 509 33,000  Level Jacksonville Center
10:54AM 31.4186 -84.1925 171° South 448 516 33,000  Level Jacksonville Center
10:55AM 31.2978 -84.1689 171° South 448 516 33,000  Level Jacksonville Center
10:56AM 31.1792 -84.1456 170° South 443 510 33,000  Level Jacksonville Center
10:57AM 31.0603 -84.1222 170° South 443 510 33,000  Level Jacksonville Center
10:58AM 30.9414 -84.1011 171° South 443 510 33,000  Level Jacksonville Center
10:59AM 30.8247 -84.0803 171° South 438 504 33,000  Level Jacksonville Center
11:00AM 30.7058 -84.0572 171° South 438 504 33,000  Level Jacksonville Center
11:01AM 30.5872 -84.0339 170° South 433 498 33,000 -60 Level Jacksonville Center
11:02AM 30.4600 -84.0108 171° South 428 493 32,900 -60 Descending Jacksonville Center
11:03AM 30.3411 -83.9900 171° South 428 493 32,900  Level Jacksonville Center
11:04AM 30.2222 -83.9672 171° South 428 493 32,900  Level Jacksonville Center
11:05AM 30.1036 -83.9442 170° South 428 493 32,900  Level Jacksonville Center
11:06AM 29.9867 -83.9236 171° South 428 493 32,900  Level Jacksonville Center
11:07AM 29.8722 -83.9033 171° South 428 493 32,900  Level Jacksonville Center
11:08AM 29.7556 -83.8542 160° South 428 493 32,900  Level Jacksonville Center
11:09AM 29.6456 -83.7817 150° Southeast 439 505 32,900 -60 Level Jacksonville Center
11:10AM 29.5353 -83.7114 151° Southeast 445 512 32,800 -1,020 Descending Jacksonville Center
11:11AM 29.4272 -83.6364 149° Southeast 456 525 30,900 -1,980 Descending Jacksonville Center
11:12AM 29.3211 -83.5714 152° Southeast 450 518 28,900 -2,040 Descending Jacksonville Center
11:13AM 29.2192 -83.5064 151° Southeast 433 498 26,900 -1,860 Descending Jacksonville Center
11:14AM 29.1192 -83.4392 150° Southeast 421 484 25,200 -1,500 Descending Jacksonville Center
11:15AM 29.0214 -83.3794 152° Southeast 408 470 23,900 -660 Descending Jacksonville Center
11:16AM 28.9214 -83.3172 151° Southeast 408 470 23,900  Level Jacksonville Center
11:17AM 28.8236 -83.2553 151° Southeast 408 470 23,900 -2,040 Level Jacksonville Center
11:19AM 28.5667 -83.1000 152° Southeast 441 507 17,000 -3,000 Descending Tampa TRACON
11:20AM 28.4667 -83.0333 150° Southeast 434 499 13,800 -2,880 Descending Tampa TRACON
11:21AM 28.3667 -82.9833 156° South 393 452 11,300 -1,740 Descending Tampa TRACON
11:22AM 28.2667 -82.9500 164° South 352 405 10,300 -960 Descending Tampa TRACON
11:23AM 28.1833 -82.9167 161° South 298 343 9,400 -1,440 Descending Tampa TRACON
11:24AM 28.1167 -82.9000 168° South 278 320 7,700 -1,980 Descending Tampa TRACON
11:25AM 28.0333 -82.8833 170° South 280 322 5,500 -1,740 Descending Tampa TRACON
11:26AM 27.9667 -82.8667 168° South 268 308 4,100 -1,440 Descending Tampa TRACON
11:27AM 27.9000 -82.8333 156° South 252 290 2,700 -1,260 Descending Tampa TRACON
11:28AM 27.8667 -82.7667 119° Southeast 239 275 1,600 -780 Descending Tampa TRACON
11:29AM 27.8500 -82.7000 106° East 165 190 1,200 -600 Descending Tampa TRACON
11:30AM 27.8833 -82.6833 24° Northeast 133 153 500 -720 Descending Tampa TRACON